Time;durP1;ratioP1;P1;durP2;ratioP2;P2;SDS_P1;SDS_P2;PMS_P1;PMS_P2;Temp;Humidity;BMP_temperature;BMP_pressure;BME280_temperature;BME280_humidity;BME280_pressure;Samples;Min_cycle;Max_cycle;Signal;HPM_P1;HPM_P2
2022/07/05 00:00:42;;;;;;;2.63;0.77;;;18.30;70.00;;;;;;4997237;28;20022;-80
2022/07/05 00:03:08;;;;;;;2.58;0.95;;;18.20;70.30;;;;;;5013490;28;20041;-80
2022/07/05 00:05:35;;;;;;;2.90;0.60;;;18.20;70.60;;;;;;5014715;28;20465;-77
2022/07/05 00:08:00;;;;;;;3.55;0.80;;;18.10;70.90;;;;;;5014737;28;20034;-80
2022/07/05 00:10:26;;;;;;;3.83;0.65;;;18.10;71.10;;;;;;4996747;28;20032;-80
2022/07/05 00:12:52;;;;;;;3.53;0.70;;;18.10;71.30;;;;;;5013292;28;20034;-78
2022/07/05 00:15:18;;;;;;;4.07;1.23;;;18.00;71.70;;;;;;4997598;28;20050;-77
2022/07/05 00:17:44;;;;;;;3.22;0.82;;;18.00;71.50;;;;;;5014327;28;20120;-77
2022/07/05 00:20:10;;;;;;;3.58;0.90;;;17.90;71.70;;;;;;4981412;28;20129;-79
2022/07/05 00:22:35;;;;;;;2.38;0.75;;;17.90;71.90;;;;;;4997145;28;20034;-77
2022/07/05 00:25:01;;;;;;;2.88;1.00;;;17.90;72.20;;;;;;4996749;28;20054;-79
2022/07/05 00:27:26;;;;;;;3.75;0.90;;;17.80;72.60;;;;;;5013585;28;20113;-80
2022/07/05 00:29:52;;;;;;;3.00;0.95;;;17.80;72.90;;;;;;4996981;28;20070;-78
2022/07/05 00:32:18;;;;;;;3.35;1.02;;;17.80;73.30;;;;;;4996701;28;20048;-80
2022/07/05 00:34:44;;;;;;;2.17;0.80;;;17.80;73.70;;;;;;4996584;28;20481;-78
2022/07/05 00:37:09;;;;;;;2.20;0.90;;;17.70;73.90;;;;;;5013034;28;20033;-78
2022/07/05 00:39:35;;;;;;;4.45;1.20;;;17.70;74.90;;;;;;4996503;28;20140;-78
2022/07/05 00:42:01;;;;;;;2.70;0.90;;;17.70;74.60;;;;;;5012871;28;20030;-78
2022/07/05 00:44:34;;;;;;;5.38;1.00;;;17.70;75.00;;;;;;5014142;28;20497;-78
2022/07/05 00:47:04;;;;;;;2.78;0.88;;;17.60;75.50;;;;;;5012553;28;20026;-78
2022/07/05 00:49:31;;;;;;;3.03;1.17;;;17.60;75.70;;;;;;5012462;28;20026;-78
2022/07/05 00:51:58;;;;;;;3.58;1.30;;;17.60;75.90;;;;;;5013805;28;20033;-78
2022/07/05 00:54:24;;;;;;;4.47;1.30;;;17.50;76.10;;;;;;5013804;28;20109;-78
2022/07/05 00:56:50;;;;;;;4.43;1.38;;;17.50;76.30;;;;;;5012449;28;20041;-78
2022/07/05 00:59:15;;;;;;;2.10;1.17;;;17.50;76.50;;;;;;4996034;28;20033;-78
2022/07/05 01:01:41;;;;;;;3.63;1.35;;;17.50;76.50;;;;;;5012706;28;20029;-77
2022/07/05 01:04:07;;;;;;;4.15;1.45;;;17.40;76.60;;;;;;4995786;28;20120;-78
2022/07/05 01:06:33;;;;;;;4.43;1.30;;;17.40;76.70;;;;;;5012270;28;20113;-78
2022/07/05 01:08:59;;;;;;;3.78;1.45;;;17.30;76.70;;;;;;4996192;28;20037;-78
2022/07/05 01:11:25;;;;;;;3.67;0.93;;;17.30;76.80;;;;;;5012430;28;20354;-77
2022/07/05 01:13:51;;;;;;;3.00;1.10;;;17.20;77.60;;;;;;5012247;28;20030;-77
2022/07/05 01:16:16;;;;;;;2.60;1.40;;;17.20;77.00;;;;;;5012328;28;20120;-77
2022/07/05 01:18:44;;;;;;;4.18;1.45;;;17.10;77.20;;;;;;5013419;28;20133;-78
2022/07/05 01:21:13;;;;;;;4.60;1.30;;;17.10;77.40;;;;;;5012230;28;20470;-78
2022/07/05 01:23:39;;;;;;;3.17;1.00;;;17.10;77.60;;;;;;4999421;28;20088;-78
2022/07/05 01:26:07;;;;;;;3.58;0.95;;;17.00;77.80;;;;;;5016143;28;20057;-78
2022/07/05 01:28:32;;;;;;;4.78;1.25;;;17.00;78.00;;;;;;5016209;28;20508;-79
2022/07/05 01:31:01;;;;;;;4.20;1.58;;;16.90;78.20;;;;;;5016367;28;20038;-79
2022/07/05 01:33:30;;;;;;;4.72;1.38;;;16.90;78.60;;;;;;5017960;28;20030;-77
2022/07/05 01:35:57;;;;;;;4.35;1.45;;;16.90;78.90;;;;;;5017318;28;20026;-77
2022/07/05 01:38:23;;;;;;;5.60;2.08;;;16.80;79.00;;;;;;5016062;28;20474;-77
2022/07/05 01:40:51;;;;;;;4.13;1.88;;;16.80;79.30;;;;;;5015855;28;20026;-77
2022/07/05 01:43:21;;;;;;;4.97;1.98;;;16.70;79.60;;;;;;4999763;28;20533;-77
2022/07/05 01:45:48;;;;;;;4.20;2.22;;;16.70;79.90;;;;;;5015717;28;20080;-77
2022/07/05 01:48:17;;;;;;;5.03;2.53;;;16.70;80.10;;;;;;5015829;28;20474;-78
2022/07/05 01:50:57;;;;;;;4.47;1.90;;;16.70;80.40;;;;;;5016093;28;20488;-77
2022/07/05 01:53:27;;;;;;;7.47;2.50;;;16.70;80.60;;;;;;5016037;28;20578;-78
2022/07/05 01:55:56;;;;;;;4.55;2.55;;;16.70;80.70;;;;;;5015703;28;20033;-77
2022/07/05 01:58:22;;;;;;;4.15;2.15;;;16.70;80.80;;;;;;5015751;28;20498;-77
2022/07/05 02:00:51;;;;;;;3.72;2.53;;;16.70;81.40;;;;;;5016794;28;20026;-77
2022/07/05 02:03:17;;;;;;;4.47;2.47;;;16.70;81.00;;;;;;4999124;28;20474;-77
2022/07/05 02:05:44;;;;;;;5.35;2.40;;;16.60;81.00;;;;;;5015582;28;20080;-77
2022/07/05 02:08:10;;;;;;;5.72;2.25;;;16.70;81.30;;;;;;4982980;28;20034;-77
2022/07/05 02:10:37;;;;;;;3.85;1.95;;;16.60;81.40;;;;;;5015470;28;20042;-77
2022/07/05 02:13:03;;;;;;;2.38;1.40;;;16.60;81.80;;;;;;5015489;28;20034;-77
2022/07/05 02:15:34;;;;;;;2.90;1.48;;;16.60;81.90;;;;;;5015462;28;20390;-77
2022/07/05 02:18:01;;;;;;;2.47;1.40;;;16.60;82.00;;;;;;5016621;28;20085;-77
2022/07/05 02:20:27;;;;;;;4.55;1.45;;;16.60;82.10;;;;;;5016505;28;20030;-77
2022/07/05 02:22:53;;;;;;;4.53;1.40;;;16.60;82.90;;;;;;4999098;28;20111;-79
2022/07/05 02:25:18;;;;;;;2.92;1.60;;;16.60;82.30;;;;;;4998864;28;20562;-78
2022/07/05 02:27:44;;;;;;;4.93;2.15;;;16.60;82.40;;;;;;4999037;28;20060;-78
2022/07/05 02:30:11;;;;;;;4.65;1.90;;;16.50;82.50;;;;;;5015730;28;20367;-78
2022/07/05 02:32:36;;;;;;;7.30;2.40;;;16.50;82.70;;;;;;5014884;28;20053;-78
2022/07/05 02:35:03;;;;;;;4.50;2.08;;;16.50;82.80;;;;;;5015072;28;20034;-78
2022/07/05 02:37:29;;;;;;;3.42;1.65;;;16.50;82.90;;;;;;4999216;28;20478;-78
2022/07/05 02:39:55;;;;;;;3.58;1.98;;;16.40;83.10;;;;;;5016238;28;20092;-78
2022/07/05 02:42:20;;;;;;;6.57;2.10;;;16.40;83.30;;;;;;4998673;28;20485;-78
2022/07/05 02:44:46;;;;;;;4.32;1.95;;;16.40;83.50;;;;;;4998825;28;20121;-78
2022/07/05 02:47:12;;;;;;;4.35;2.00;;;16.40;83.80;;;;;;5014779;28;20022;-78
2022/07/05 02:49:38;;;;;;;5.50;2.40;;;16.40;84.00;;;;;;4998436;28;20037;-78
2022/07/05 02:52:03;;;;;;;4.70;2.20;;;16.40;84.10;;;;;;4998425;28;20030;-78
2022/07/05 02:54:29;;;;;;;4.88;2.60;;;16.40;84.20;;;;;;5014648;28;20061;-78
2022/07/05 02:56:55;;;;;;;5.32;2.88;;;16.40;84.40;;;;;;4998392;28;20030;-78
2022/07/05 02:59:20;;;;;;;6.80;2.13;;;16.50;84.60;;;;;;5014581;28;20065;-78
2022/07/05 03:01:46;;;;;;;5.65;2.30;;;16.50;84.70;;;;;;4982042;28;20088;-78
2022/07/05 03:04:11;;;;;;;6.45;2.20;;;16.50;84.80;;;;;;4998116;28;20038;-78
2022/07/05 03:06:37;;;;;;;5.70;2.15;;;16.50;84.90;;;;;;5014237;28;20034;-78
2022/07/05 03:09:03;;;;;;;4.45;2.20;;;16.50;84.90;;;;;;5014279;28;20467;-78
2022/07/05 03:11:29;;;;;;;4.95;1.83;;;16.50;84.90;;;;;;5015589;28;20153;-78
2022/07/05 03:13:55;;;;;;;4.80;2.10;;;16.50;85.10;;;;;;4982085;28;20360;-78
2022/07/05 03:16:23;;;;;;;5.32;2.55;;;16.60;85.20;;;;;;5015813;28;20034;-78
2022/07/05 03:18:49;;;;;;;5.78;2.58;;;16.50;85.10;;;;;;4998343;28;20029;-78
2022/07/05 03:21:14;;;;;;;6.78;2.55;;;16.60;85.20;;;;;;4997904;28;20080;-78
2022/07/05 03:23:40;;;;;;;7.50;2.85;;;16.50;85.90;;;;;;5014096;28;20033;-78
2022/07/05 03:26:06;;;;;;;4.75;2.40;;;16.60;85.40;;;;;;4997717;28;20058;-79
2022/07/05 03:28:32;;;;;;;5.05;2.88;;;16.50;85.40;;;;;;4981651;28;20022;-78
2022/07/05 03:30:58;;;;;;;4.68;2.70;;;16.60;85.50;;;;;;5015283;28;20064;-78
2022/07/05 03:33:23;;;;;;;6.82;2.92;;;16.50;85.60;;;;;;5013960;28;20053;-79
2022/07/05 03:35:49;;;;;;;6.95;2.88;;;16.60;85.80;;;;;;5015132;28;20069;-78
2022/07/05 03:38:14;;;;;;;5.90;3.13;;;16.50;85.90;;;;;;5013921;28;20030;-78
2022/07/05 03:40:40;;;;;;;5.28;3.08;;;16.50;86.70;;;;;;5014029;28;20033;-78
2022/07/05 03:43:06;;;;;;;5.60;2.88;;;16.60;86.20;;;;;;5013931;28;20065;-78
2022/07/05 03:45:31;;;;;;;5.32;2.67;;;16.60;86.30;;;;;;5013353;28;20037;-78
2022/07/05 03:47:58;;;;;;;5.25;2.90;;;16.60;86.50;;;;;;4981228;28;20149;-78
2022/07/05 03:50:24;;;;;;;6.32;3.30;;;16.60;86.60;;;;;;5015057;28;20481;-78
2022/07/05 03:52:50;;;;;;;4.50;2.38;;;16.60;86.60;;;;;;5014771;28;20034;-78
2022/07/05 03:55:15;;;;;;;5.10;2.90;;;16.60;86.70;;;;;;4981245;28;20038;-78
2022/07/05 03:57:41;;;;;;;4.57;2.75;;;16.70;86.90;;;;;;4981088;28;20499;-78
2022/07/05 04:00:07;;;;;;;6.50;3.05;;;16.60;87.00;;;;;;4997063;28;20398;-78
2022/07/05 04:02:33;;;;;;;5.63;2.72;;;16.60;87.20;;;;;;5013414;28;20041;-78
2022/07/05 04:04:58;;;;;;;5.50;3.10;;;16.70;87.40;;;;;;5013579;28;20034;-78
2022/07/05 04:07:24;;;;;;;5.40;3.13;;;16.70;87.50;;;;;;5030789;28;20061;-78
2022/07/05 04:09:50;;;;;;;5.00;3.22;;;16.70;87.70;;;;;;4999278;28;20029;-78
2022/07/05 04:12:15;;;;;;;6.25;3.55;;;16.70;88.40;;;;;;5032973;28;20037;-78
2022/07/05 04:14:41;;;;;;;6.47;3.97;;;16.70;88.40;;;;;;5013176;28;20025;-78
2022/07/05 04:17:06;;;;;;;7.35;4.05;;;16.70;87.90;;;;;;4996822;28;20478;-78
2022/07/05 04:19:32;;;;;;;6.40;3.65;;;16.70;87.90;;;;;;5013162;28;20080;-78
2022/07/05 04:21:58;;;;;;;4.78;3.38;;;16.70;88.00;;;;;;5013135;28;20462;-78
2022/07/05 04:24:24;;;;;;;6.60;3.47;;;16.80;88.10;;;;;;5014131;28;20037;-78
2022/07/05 04:26:49;;;;;;;6.80;4.38;;;16.80;88.20;;;;;;4996596;28;20064;-78
2022/07/05 04:29:15;;;;;;;8.75;3.92;;;16.80;88.30;;;;;;4996597;28;20026;-78
2022/07/05 04:31:40;;;;;;;5.38;3.67;;;16.80;88.30;;;;;;5012902;28;20398;-78
2022/07/05 04:34:06;;;;;;;7.70;4.30;;;16.80;88.40;;;;;;4996524;28;20475;-78
2022/07/05 04:36:32;;;;;;;9.05;4.38;;;16.80;88.50;;;;;;4996517;28;20133;-78
2022/07/05 04:38:57;;;;;;;8.68;4.88;;;16.90;88.50;;;;;;5012710;28;20030;-79
2022/07/05 04:41:23;;;;;;;7.60;4.97;;;16.90;88.30;;;;;;4996379;28;20038;-78
2022/07/05 04:43:49;;;;;;;9.35;5.80;;;16.90;88.20;;;;;;5012618;28;20026;-78
2022/07/05 04:46:14;;;;;;;7.68;4.95;;;17.00;88.20;;;;;;4996358;28;20170;-78
2022/07/05 04:48:40;;;;;;;12.13;6.75;;;17.00;88.10;;;;;;4996640;28;20057;-78
2022/07/05 04:51:06;;;;;;;9.23;5.85;;;17.00;88.00;;;;;;4996248;28;20040;-78
2022/07/05 04:53:31;;;;;;;9.10;5.65;;;17.00;87.90;;;;;;5013883;28;20057;-78
2022/07/05 04:55:57;;;;;;;10.07;5.35;;;17.10;87.90;;;;;;4995795;28;20569;-80
2022/07/05 04:58:22;;;;;;;8.13;5.45;;;17.00;87.70;;;;;;5011812;28;20029;-80
2022/07/05 05:00:48;;;;;;;8.63;5.03;;;17.10;87.80;;;;;;5012525;28;20497;-80
2022/07/05 05:03:14;;;;;;;10.38;5.22;;;17.00;87.80;;;;;;5012499;28;20030;-80
2022/07/05 05:05:39;;;;;;;11.65;5.57;;;17.10;87.90;;;;;;4996079;28;20475;-80
2022/07/05 05:08:05;;;;;;;7.65;4.88;;;17.20;87.80;;;;;;4995882;28;20037;-80
2022/07/05 05:10:30;;;;;;;9.48;5.72;;;17.10;87.80;;;;;;4995939;28;20037;-80
2022/07/05 05:12:56;;;;;;;8.75;5.88;;;17.20;87.80;;;;;;4996069;28;20026;-80
2022/07/05 05:15:22;;;;;;;11.35;6.80;;;17.20;87.80;;;;;;4996065;28;20076;-80
2022/07/05 05:17:47;;;;;;;8.98;6.63;;;17.20;87.90;;;;;;4995751;28;20489;-80
2022/07/05 05:20:15;;;;;;;10.35;6.97;;;17.20;87.90;;;;;;5012095;28;20109;-80
2022/07/05 05:22:42;;;;;;;11.18;7.18;;;17.30;88.10;;;;;;5013630;28;20386;-79
2022/07/05 05:25:08;;;;;;;10.20;6.90;;;17.30;88.10;;;;;;5012235;28;20097;-80
2022/07/05 05:27:34;;;;;;;12.48;7.47;;;17.30;88.10;;;;;;4995846;28;20041;-80
2022/07/05 05:30:00;;;;;;;13.55;7.72;;;17.40;88.20;;;;;;5013480;28;20022;-79
2022/07/05 05:32:25;;;;;;;13.45;8.65;;;17.40;88.10;;;;;;4995768;28;20037;-80
2022/07/05 05:34:51;;;;;;;12.15;8.07;;;17.50;88.20;;;;;;4995761;28;20117;-79
2022/07/05 05:37:17;;;;;;;13.02;8.75;;;17.60;88.20;;;;;;5012457;28;20026;-80
2022/07/05 05:39:42;;;;;;;12.77;8.57;;;17.60;88.30;;;;;;5013255;28;20034;-80
2022/07/05 05:42:08;;;;;;;12.23;8.55;;;17.60;88.30;;;;;;5012023;28;20544;-80
2022/07/05 05:44:34;;;;;;;12.93;7.97;;;17.60;88.30;;;;;;5012096;28;20057;-80
2022/07/05 05:47:00;;;;;;;15.90;8.95;;;17.70;88.40;;;;;;5012103;28;20034;-80
2022/07/05 05:49:25;;;;;;;11.27;8.15;;;17.70;88.30;;;;;;4995542;28;20041;-80
2022/07/05 05:51:51;;;;;;;11.90;8.35;;;17.70;88.30;;;;;;5012015;28;20022;-80
2022/07/05 05:54:16;;;;;;;12.25;8.43;;;17.80;88.30;;;;;;4999122;28;20077;-81
2022/07/05 05:56:42;;;;;;;12.20;8.30;;;17.80;88.50;;;;;;5023471;28;20037;-80
2022/07/05 05:59:08;;;;;;;11.63;8.32;;;17.80;88.50;;;;;;5011959;28;20034;-80
2022/07/05 06:01:34;;;;;;;11.82;7.50;;;17.90;88.50;;;;;;4995210;28;20038;-80
2022/07/05 06:03:59;;;;;;;12.05;7.40;;;17.90;88.40;;;;;;4995345;28;20080;-80
2022/07/05 06:06:25;;;;;;;12.90;8.50;;;18.00;88.30;;;;;;4979132;28;20479;-80
2022/07/05 06:08:51;;;;;;;10.52;7.82;;;18.00;88.20;;;;;;4997314;28;20062;-81
2022/07/05 06:11:16;;;;;;;9.85;7.03;;;18.10;88.20;;;;;;5015295;28;20037;-80
2022/07/05 06:13:43;;;;;;;10.55;7.38;;;18.10;88.20;;;;;;5015416;28;20034;-80
2022/07/05 06:16:09;;;;;;;9.45;7.20;;;18.10;88.20;;;;;;5016479;28;20097;-80
2022/07/05 06:18:35;;;;;;;9.40;7.10;;;18.10;88.20;;;;;;5015141;28;20077;-81
2022/07/05 06:21:01;;;;;;;11.20;7.55;;;18.10;88.80;;;;;;5014996;28;20052;-81
2022/07/05 06:23:26;;;;;;;12.15;7.03;;;18.20;88.20;;;;;;5014911;28;20033;-79
2022/07/05 06:25:52;;;;;;;8.93;6.15;;;18.20;88.10;;;;;;4998455;28;20054;-80
2022/07/05 06:28:18;;;;;;;11.20;7.68;;;18.20;88.00;;;;;;4998639;28;20084;-79
2022/07/05 06:30:43;;;;;;;10.48;7.32;;;18.30;88.70;;;;;;4998907;28;20033;-80
2022/07/05 06:33:09;;;;;;;11.07;7.63;;;18.30;87.90;;;;;;5016035;28;20470;-80
2022/07/05 06:35:35;;;;;;;11.52;7.35;;;18.30;87.80;;;;;;4998529;28;20125;-80
2022/07/05 06:38:03;;;;;;;11.30;6.20;;;18.40;87.80;;;;;;5014871;28;20030;-80
2022/07/05 06:40:35;;;;;;;10.48;6.68;;;18.40;87.80;;;;;;5014946;28;20029;-81
2022/07/05 06:43:07;;;;;;;9.20;6.20;;;18.40;87.60;;;;;;5016207;28;20025;-80
2022/07/05 06:45:33;;;;;;;8.80;6.10;;;18.50;87.60;;;;;;4999234;28;20053;-80
2022/07/05 06:48:07;;;;;;;10.77;6.05;;;18.50;87.20;;;;;;4982149;28;20030;-80
2022/07/05 06:50:35;;;;;;;;;;;18.40;86.90;;;;;;5016491;28;20026;-80
2022/07/05 06:53:01;;;;;;;8.77;5.10;;;18.40;86.80;;;;;;4998734;28;19971;-80
2022/07/05 06:55:27;;;;;;;7.38;4.65;;;18.50;86.60;;;;;;5015828;28;20425;-80
2022/07/05 06:57:58;;;;;;;10.48;5.57;;;18.50;86.30;;;;;;4982316;28;20398;-80
2022/07/05 07:00:24;;;;;;;7.75;4.85;;;18.50;85.70;;;;;;5014616;28;20026;-81
2022/07/05 07:02:50;;;;;;;9.15;4.78;;;18.40;85.50;;;;;;5014220;28;20022;-80
2022/07/05 07:05:15;;;;;;;10.05;4.90;;;18.40;85.30;;;;;;5014303;28;20030;-80
2022/07/05 07:10:25;;;;;;;;;;;18.40;85.00;;;;;;5016338;28;20088;-80
2022/07/05 07:12:51;;;;;;;6.65;3.70;;;18.50;84.80;;;;;;5030670;28;19906;-81
2022/07/05 07:15:17;;;;;;;7.45;4.28;;;18.50;84.60;;;;;;5014128;28;20045;-82
2022/07/05 07:17:42;;;;;;;9.00;4.60;;;18.50;84.60;;;;;;4997716;28;20030;-80
2022/07/05 07:20:09;;;;;;;6.65;4.20;;;18.50;84.40;;;;;;5014458;28;20505;-80
2022/07/05 07:22:34;;;;;;;7.07;4.00;;;18.50;84.30;;;;;;4997790;28;20434;-80
2022/07/05 07:25:00;;;;;;;7.00;4.28;;;18.60;84.20;;;;;;5014008;28;20111;-80
2022/07/05 07:27:25;;;;;;;7.85;4.90;;;18.60;84.20;;;;;;4997605;28;20066;-80
2022/07/05 07:29:51;;;;;;;6.07;3.85;;;18.70;84.20;;;;;;4981517;28;20029;-80
2022/07/05 07:32:18;;;;;;;8.85;4.10;;;18.70;83.90;;;;;;5013947;28;20030;-80
2022/07/05 07:34:44;;;;;;;7.68;4.28;;;18.80;83.60;;;;;;4997753;28;20080;-81
2022/07/05 07:37:13;;;;;;;7.68;4.63;;;18.90;83.30;;;;;;5013929;28;20037;-80
2022/07/05 07:39:39;;;;;;;7.05;4.15;;;18.90;83.20;;;;;;5013876;28;20578;-80
2022/07/05 07:42:06;;;;;;;6.40;3.90;;;19.00;83.10;;;;;;5013637;28;20026;-81
2022/07/05 07:44:31;;;;;;;6.28;4.15;;;19.10;83.00;;;;;;5013728;28;20034;-80
2022/07/05 07:46:57;;;;;;;6.47;3.30;;;19.20;82.80;;;;;;4997284;28;20406;-80
2022/07/05 07:49:23;;;;;;;5.28;2.90;;;19.30;82.40;;;;;;4997355;28;20034;-81
2022/07/05 07:51:49;;;;;;;7.13;3.50;;;19.40;82.80;;;;;;4980983;28;20057;-81
2022/07/05 07:54:14;;;;;;;5.57;3.38;;;19.50;81.60;;;;;;4997039;28;20034;-81
2022/07/05 07:56:40;;;;;;;5.65;3.00;;;19.60;81.10;;;;;;4997173;28;20034;-81
2022/07/05 07:59:06;;;;;;;5.55;3.17;;;19.70;80.80;;;;;;5013343;28;20376;-81
2022/07/05 08:01:31;;;;;;;6.60;2.75;;;19.80;80.70;;;;;;5013520;28;20478;-81
2022/07/05 08:03:57;;;;;;;5.10;3.15;;;19.90;80.30;;;;;;4997221;28;20040;-81
2022/07/05 08:06:23;;;;;;;5.53;2.97;;;20.00;79.80;;;;;;5013521;28;20121;-81
2022/07/05 08:08:48;;;;;;;6.68;2.90;;;20.10;79.10;;;;;;5013695;28;20022;-81
2022/07/05 08:11:14;;;;;;;7.43;3.30;;;20.10;78.70;;;;;;5013222;28;20030;-81
2022/07/05 08:13:41;;;;;;;5.45;2.85;;;20.20;78.40;;;;;;5013170;28;20112;-81
2022/07/05 08:16:11;;;;;;;5.72;3.85;;;20.20;78.00;;;;;;5013246;28;20026;-81
2022/07/05 08:21:35;;;;;;;;;;;20.40;77.70;;;;;;5015040;28;20117;-84
2022/07/05 08:24:06;;;;;;;6.57;3.10;;;20.50;77.70;;;;;;5014132;28;19936;-83
2022/07/05 08:26:32;;;;;;;6.50;4.22;;;20.60;77.60;;;;;;5014121;28;20041;-84
2022/07/05 08:29:01;;;;;;;5.80;3.53;;;20.60;77.10;;;;;;5012995;28;20026;-84
2022/07/05 08:31:28;;;;;;;5.47;2.90;;;20.70;76.60;;;;;;5012704;28;20022;-83
2022/07/05 08:33:54;;;;;;;5.07;3.17;;;20.80;76.10;;;;;;5013158;28;20475;-83
2022/07/05 08:36:20;;;;;;;6.10;3.83;;;20.90;76.60;;;;;;5013362;28;20029;-84
2022/07/05 08:38:45;;;;;;;6.00;3.15;;;20.90;75.70;;;;;;4996539;28;20026;-83
2022/07/05 08:41:11;;;;;;;4.22;2.97;;;21.00;75.30;;;;;;5012805;28;20034;-84
2022/07/05 08:43:41;;;;;;;5.25;3.33;;;21.10;75.10;;;;;;5014492;28;20079;-83
2022/07/05 08:46:11;;;;;;;5.38;3.00;;;21.20;74.80;;;;;;5026279;28;20159;-85
2022/07/05 08:48:44;;;;;;;4.75;1.88;;;21.20;74.20;;;;;;5017407;28;20037;-83
2022/07/05 08:51:17;;;;;;;4.13;2.42;;;21.30;73.80;;;;;;5012596;28;20026;-86
2022/07/05 08:53:44;;;;;;;4.18;2.08;;;21.40;73.20;;;;;;5013536;28;20024;-84
2022/07/05 08:56:12;;;;;;;5.03;2.75;;;21.40;72.80;;;;;;5003118;28;20022;-84
2022/07/05 08:58:38;;;;;;;5.32;2.63;;;21.50;72.60;;;;;;5032258;28;20500;-85
2022/07/05 09:01:05;;;;;;;5.75;3.17;;;21.50;72.20;;;;;;4998979;28;20084;-85
2022/07/05 09:03:40;;;;;;;4.97;3.30;;;21.50;72.10;;;;;;5032319;28;20028;-86
2022/07/05 09:06:09;;;;;;;6.15;2.88;;;21.50;72.20;;;;;;5032053;28;20049;-84
2022/07/05 09:08:39;;;;;;;6.57;3.55;;;21.50;72.10;;;;;;5032010;28;20049;-84
2022/07/05 09:11:13;;;;;;;4.45;1.88;;;21.60;72.00;;;;;;5016692;28;20072;-83
2022/07/05 09:13:40;;;;;;;;;;;21.60;71.70;;;;;;5033681;28;20025;-85
2022/07/05 09:16:07;;;;;;;3.72;1.80;;;21.70;70.90;;;;;;5032381;28;19940;-84
2022/07/05 09:18:43;;;;;;;4.43;1.95;;;21.70;70.90;;;;;;4997265;28;20109;-84
2022/07/05 09:21:22;;;;;;;4.82;2.45;;;21.80;70.00;;;;;;5012212;28;20033;-84
2022/07/05 09:24:06;;;;;;;4.55;1.92;;;21.90;69.30;;;;;;5012550;28;20029;-84
2022/07/05 09:26:35;;;;;;;3.35;1.52;;;21.90;68.80;;;;;;5013296;28;20038;-84
2022/07/05 09:29:05;;;;;;;3.50;2.13;;;21.90;68.50;;;;;;4995939;28;20041;-84
2022/07/05 09:31:36;;;;;;;7.00;2.03;;;21.90;67.90;;;;;;5012234;28;20483;-84
2022/07/05 09:34:12;;;;;;;4.90;1.60;;;21.80;67.80;;;;;;5011872;28;20026;-86
2022/07/05 09:37:03;;;;;;;6.65;1.98;;;21.80;67.80;;;;;;5013262;28;20080;-84
2022/07/05 09:39:37;;;;;;;5.45;2.25;;;21.80;67.60;;;;;;4997104;28;20108;-85
2022/07/05 09:42:20;;;;;;;4.80;2.15;;;21.80;67.40;;;;;;5012086;28;20045;-84
2022/07/05 09:44:53;;;;;;;7.05;2.83;;;21.70;67.10;;;;;;5015412;28;20075;-86
2022/07/05 09:47:21;;;;;;;7.32;2.60;;;21.70;67.00;;;;;;5017281;28;20026;-83
2022/07/05 09:49:52;;;;;;;5.72;3.47;;;21.60;67.30;;;;;;5016213;28;20053;-83
2022/07/05 09:52:29;;;;;;;6.65;3.75;;;21.60;67.70;;;;;;5015729;28;20019;-84
2022/07/05 09:55:01;;;;;;;6.55;3.60;;;21.50;68.10;;;;;;5017102;28;20033;-84
2022/07/05 09:57:27;;;;;;;6.18;3.78;;;21.50;68.40;;;;;;5015663;28;20026;-85
2022/07/05 10:00:05;;;;;;;7.45;3.38;;;21.50;68.70;;;;;;5025010;28;20033;-84
2022/07/05 10:02:38;;;;;;;7.53;3.42;;;21.60;69.00;;;;;;5035463;28;20385;-85
2022/07/05 10:05:15;;;;;;;6.22;3.25;;;21.70;69.10;;;;;;5035411;28;20071;-85
2022/07/05 10:07:47;;;;;;;4.82;3.10;;;21.70;69.10;;;;;;5035047;28;20013;-84
2022/07/05 10:10:15;;;;;;;5.13;3.20;;;21.80;69.10;;;;;;5035254;28;20017;-86
2022/07/05 10:12:42;;;;;;;5.57;2.33;;;22.00;69.20;;;;;;5035142;28;20029;-86
2022/07/05 10:15:11;;;;;;;5.03;1.85;;;22.00;69.10;;;;;;5035113;28;20022;-85
2022/07/05 10:17:41;;;;;;;4.57;1.55;;;22.10;68.20;;;;;;5036488;28;20021;-84
2022/07/05 10:20:22;;;;;;;3.15;1.65;;;22.20;67.70;;;;;;5036680;28;20061;-84
2022/07/05 10:22:47;;;;;;;4.60;1.58;;;22.20;67.20;;;;;;5035319;28;20492;-84
2022/07/05 10:25:14;;;;;;;3.08;1.35;;;22.20;66.80;;;;;;5034791;28;20088;-86
2022/07/05 10:27:40;;;;;;;3.88;1.60;;;22.30;66.50;;;;;;5035092;28;20034;-86
2022/07/05 10:30:07;;;;;;;4.47;1.67;;;22.50;66.20;;;;;;5002487;28;20380;-86
2022/07/05 10:32:34;;;;;;;4.82;1.58;;;22.60;65.30;;;;;;5015238;28;20117;-85
2022/07/05 10:35:00;;;;;;;2.30;1.20;;;22.60;64.60;;;;;;5018886;28;20029;-84
2022/07/05 10:37:28;;;;;;;4.22;1.38;;;22.70;64.10;;;;;;5034923;28;20112;-84
2022/07/05 10:40:05;;;;;;;2.30;1.05;;;22.70;63.90;;;;;;5034954;28;20080;-84
2022/07/05 10:42:50;;;;;;;3.45;1.23;;;22.80;63.50;;;;;;5036055;28;20017;-84
2022/07/05 10:45:29;;;;;;;3.35;1.10;;;22.90;63.20;;;;;;5034562;28;20036;-84
2022/07/05 10:48:21;;;;;;;3.00;1.13;;;23.00;63.10;;;;;;5017863;28;20022;-84
2022/07/05 10:50:57;;;;;;;4.20;1.50;;;23.10;63.10;;;;;;5015702;28;20348;-86
2022/07/05 10:53:24;;;;;;;2.80;1.27;;;23.30;62.90;;;;;;5015332;28;20426;-84
2022/07/05 10:56:12;;;;;;;4.72;1.00;;;23.50;62.50;;;;;;4998835;28;20045;-84
2022/07/05 10:58:44;;;;;;;7.20;1.15;;;23.70;61.40;;;;;;5015175;28;20434;-85
2022/07/05 11:01:15;;;;;;;3.38;1.05;;;23.80;61.10;;;;;;5018171;28;20020;-85
2022/07/05 11:03:56;;;;;;;3.47;0.85;;;23.90;60.40;;;;;;5027073;28;20116;-82
2022/07/05 11:06:23;;;;;;;3.45;1.20;;;23.90;60.10;;;;;;5020686;28;20485;-83
2022/07/05 11:09:02;;;;;;;3.30;1.02;;;23.90;59.80;;;;;;5014853;28;20037;-85
2022/07/05 11:11:36;;;;;;;2.38;1.00;;;24.00;59.60;;;;;;5014709;28;20100;-84
2022/07/05 11:14:03;;;;;;;2.55;1.13;;;23.90;59.50;;;;;;5014517;28;20363;-87
2022/07/05 11:16:34;;;;;;;2.95;0.98;;;23.90;59.60;;;;;;5014668;28;20018;-84
2022/07/05 11:19:06;;;;;;;4.95;1.15;;;24.00;59.70;;;;;;5014315;28;20029;-86
2022/07/05 11:21:32;;;;;;;3.22;1.50;;;24.10;59.80;;;;;;5015146;28;20037;-83
2022/07/05 11:24:24;;;;;;;4.25;1.00;;;24.20;59.60;;;;;;5014431;28;20026;-85
2022/07/05 11:26:53;;;;;;;2.30;0.60;;;24.30;59.10;;;;;;5013898;28;20034;-85
2022/07/05 11:29:43;;;;;;;2.15;0.50;;;24.30;58.70;;;;;;5015208;28;20028;-84
2022/07/05 11:32:10;;;;;;;2.45;0.70;;;24.30;58.30;;;;;;5015291;28;20076;-85
2022/07/05 11:34:37;;;;;;;2.08;0.60;;;24.40;58.80;;;;;;5014567;28;20470;-84
2022/07/05 11:37:28;;;;;;;2.13;0.50;;;24.50;57.70;;;;;;5033517;28;20037;-85
2022/07/05 11:40:11;;;;;;;1.38;0.47;;;24.60;56.80;;;;;;5033611;28;20025;-85
2022/07/05 11:42:39;;;;;;;4.22;0.50;;;24.80;56.50;;;;;;5033925;28;20392;-85
2022/07/05 11:45:09;;;;;;;4.03;0.65;;;25.00;56.10;;;;;;5035964;28;20105;-85
2022/07/05 11:47:35;;;;;;;2.38;0.50;;;25.20;55.80;;;;;;5033393;28;20065;-87
2022/07/05 11:50:01;;;;;;;1.25;0.38;;;25.50;55.50;;;;;;5033447;28;20087;-81
2022/07/05 11:52:32;;;;;;;2.35;0.40;;;25.60;55.00;;;;;;5017061;28;20021;-84
2022/07/05 11:54:59;;;;;;;2.30;0.30;;;25.70;54.40;;;;;;5018959;28;20397;-86
2022/07/05 11:57:25;;;;;;;1.13;0.30;;;25.70;53.90;;;;;;5017012;28;20470;-83
2022/07/05 11:59:51;;;;;;;1.67;0.40;;;25.70;53.60;;;;;;5034504;28;20037;-84
2022/07/05 12:02:18;;;;;;;2.22;0.40;;;25.70;54.10;;;;;;5016910;28;20061;-84
2022/07/05 12:04:51;;;;;;;1.05;0.40;;;25.80;53.30;;;;;;5030380;28;20390;-82
2022/07/05 12:07:30;;;;;;;1.75;0.30;;;26.00;52.90;;;;;;5025422;28;20030;-84
2022/07/05 12:12:44;;;;;;;5.10;0.82;;;26.10;52.40;;;;;;5033204;28;20095;-85
2022/07/05 12:15:14;;;;;;;1.65;0.32;;;26.20;52.20;;;;;;5032638;28;20112;-85
2022/07/05 12:17:42;;;;;;;2.85;0.40;;;26.30;51.90;;;;;;5033874;28;20025;-83
2022/07/05 12:20:11;;;;;;;1.23;0.30;;;26.50;52.00;;;;;;5030814;28;20037;-82
2022/07/05 12:22:44;;;;;;;1.35;0.30;;;26.60;52.10;;;;;;5021559;28;20029;-80
2022/07/05 12:25:16;;;;;;;1.35;0.22;;;26.70;51.70;;;;;;5016599;28;20498;-83
2022/07/05 12:27:44;;;;;;;1.42;0.30;;;26.90;51.30;;;;;;5013374;28;20017;-81
2022/07/05 12:30:11;;;;;;;1.65;0.30;;;27.00;50.90;;;;;;5013946;28;20021;-84
2022/07/05 12:32:56;;;;;;;1.40;0.30;;;27.10;50.40;;;;;;5019419;28;20036;-77
2022/07/05 12:35:43;;;;;;;1.42;0.20;;;27.20;49.80;;;;;;5014160;28;20046;-79
2022/07/05 12:38:14;;;;;;;2.25;0.40;;;27.30;49.50;;;;;;5013901;28;20026;-80
2022/07/05 12:40:41;;;;;;;2.05;0.30;;;27.50;49.50;;;;;;5016158;28;20121;-77
2022/07/05 12:43:17;;;;;;;1.92;0.20;;;27.50;49.00;;;;;;5017649;28;20083;-77
2022/07/05 12:46:01;;;;;;;3.22;0.35;;;27.50;48.80;;;;;;5031930;28;20018;-76
2022/07/05 12:48:54;;;;;;;2.05;0.30;;;27.50;48.50;;;;;;5012357;28;20060;-76
2022/07/05 12:51:35;;;;;;;1.25;0.40;;;27.40;48.50;;;;;;4995136;28;20578;-76
2022/07/05 12:59:35;;;;;;;2.95;0.40;;;26.90;48.80;;;;;;5032190;28;20092;-79
2022/07/05 13:02:01;;;;;;;3.70;0.60;;;27.00;48.90;;;;;;5026954;28;20506;-77
2022/07/05 13:04:27;;;;;;;2.08;0.40;;;27.00;48.60;;;;;;5012421;28;20112;-76